Time;durP1;ratioP1;P1;durP2;ratioP2;P2;SDS_P1;SDS_P2;PMS_P1;PMS_P2;Temp;Humidity;BMP_temperature;BMP_pressure;BME280_temperature;BME280_humidity;BME280_pressure;Samples;Min_cycle;Max_cycle;Signal;HPM_P1;HPM_P2
2024/03/25 00:02:02;;;;;;;23.30;3.77;;;6.60;1.00;;;;;;4937268;28;36681;-77
2024/03/25 00:04:29;;;;;;;28.90;3.93;;;6.60;1.00;;;;;;4948413;28;38471;-77
2024/03/25 00:06:56;;;;;;;27.90;3.67;;;6.50;1.00;;;;;;4946044;28;38921;-76
2024/03/25 00:09:23;;;;;;;24.47;3.93;;;6.40;1.00;;;;;;4939758;28;37918;-76
2024/03/25 00:11:49;;;;;;;26.10;4.07;;;6.40;1.00;;;;;;4940734;28;36761;-76
2024/03/25 00:14:15;;;;;;;20.23;3.27;;;6.30;3.60;;;;;;4947236;28;39616;-77
2024/03/25 00:16:41;;;;;;;18.63;3.80;;;6.30;7.40;;;;;;4933337;28;38312;-76
2024/03/25 00:19:07;;;;;;;25.53;3.93;;;6.20;13.90;;;;;;4951873;28;37708;-76
2024/03/25 00:21:33;;;;;;;20.73;3.50;;;6.10;20.70;;;;;;4955529;28;38005;-77
2024/03/25 00:24:00;;;;;;;27.17;4.43;;;6.10;26.90;;;;;;4948616;28;37679;-76
2024/03/25 00:26:26;;;;;;;24.87;3.57;;;6.00;31.20;;;;;;4957403;28;47572;-76
2024/03/25 00:28:52;;;;;;;23.83;4.27;;;6.00;34.10;;;;;;4939161;28;36585;-76
2024/03/25 00:31:19;;;;;;;34.03;5.07;;;6.10;40.90;;;;;;4954801;28;37909;-76
2024/03/25 00:33:45;;;;;;;26.47;4.57;;;6.10;38.80;;;;;;4948232;28;39358;-76
2024/03/25 00:36:14;;;;;;;24.03;4.93;;;6.10;31.50;;;;;;4958425;28;38346;-77
2024/03/25 00:38:41;;;;;;;22.83;3.73;;;6.10;29.60;;;;;;4958620;28;37515;-76
2024/03/25 00:41:07;;;;;;;23.17;4.37;;;6.10;31.10;;;;;;4953514;28;37409;-76
2024/03/25 00:43:33;;;;;;;18.70;4.70;;;6.00;37.30;;;;;;4955613;28;39492;-76
2024/03/25 00:45:59;;;;;;;17.40;3.80;;;6.00;37.70;;;;;;4949834;28;38962;-76
2024/03/25 00:48:25;;;;;;;20.47;3.10;;;5.90;43.20;;;;;;4951745;28;38840;-76
2024/03/25 00:50:52;;;;;;;18.20;3.23;;;5.80;46.70;;;;;;4948777;28;36951;-76
2024/03/25 00:53:18;;;;;;;24.67;4.87;;;5.80;51.00;;;;;;4946211;28;40557;-76
2024/03/25 00:55:45;;;;;;;25.03;3.87;;;5.70;55.60;;;;;;4947624;28;37743;-77
2024/03/25 00:58:11;;;;;;;22.60;3.30;;;5.70;64.40;;;;;;4952998;28;38511;-76
2024/03/25 01:00:37;;;;;;;25.43;3.77;;;5.70;64.50;;;;;;4950116;28;37278;-76
2024/03/25 01:03:03;;;;;;;13.40;3.00;;;5.80;64.00;;;;;;4933138;28;39519;-76
2024/03/25 01:05:29;;;;;;;27.13;4.20;;;5.80;60.20;;;;;;4952250;28;38663;-77
2024/03/25 01:07:55;;;;;;;31.37;5.83;;;5.80;57.20;;;;;;4959995;28;37412;-76
2024/03/25 01:10:22;;;;;;;20.60;3.27;;;5.90;52.90;;;;;;4944760;28;37820;-76
2024/03/25 01:12:48;;;;;;;28.90;4.30;;;5.80;49.10;;;;;;4944168;28;40592;-77
2024/03/25 01:15:14;;;;;;;20.57;2.93;;;5.90;47.60;;;;;;4934288;28;37096;-76
2024/03/25 01:17:40;;;;;;;22.10;2.93;;;5.80;45.80;;;;;;4949181;28;36781;-76
2024/03/25 01:20:06;;;;;;;30.70;5.40;;;5.80;45.90;;;;;;4946551;28;36943;-76
2024/03/25 01:22:32;;;;;;;22.77;3.63;;;5.70;47.80;;;;;;4946855;28;40632;-76
2024/03/25 01:24:59;;;;;;;18.77;4.23;;;5.70;46.30;;;;;;4932033;28;39090;-76
2024/03/25 01:27:25;;;;;;;23.00;3.60;;;5.60;51.50;;;;;;4947935;28;38373;-76
2024/03/25 01:29:51;;;;;;;17.43;3.73;;;5.60;50.80;;;;;;4940816;28;38942;-76
2024/03/25 01:32:17;;;;;;;24.53;3.80;;;5.50;54.70;;;;;;4938881;28;39762;-76
2024/03/25 01:34:43;;;;;;;21.90;3.30;;;5.50;56.30;;;;;;4942845;28;38569;-76
2024/03/25 01:37:09;;;;;;;24.97;3.00;;;5.50;58.80;;;;;;4936365;28;38800;-76
2024/03/25 01:39:37;;;;;;;19.07;3.30;;;5.40;58.40;;;;;;4936559;28;38718;-76
2024/03/25 01:42:03;;;;;;;22.37;3.27;;;5.40;59.00;;;;;;4946352;28;38004;-76
2024/03/25 01:44:29;;;;;;;23.87;3.83;;;5.40;59.40;;;;;;4942105;28;38917;-76
2024/03/25 01:46:55;;;;;;;17.83;4.00;;;5.40;59.30;;;;;;4940792;28;37391;-76
2024/03/25 01:49:22;;;;;;;17.37;2.93;;;5.40;62.90;;;;;;4945866;28;38017;-76
2024/03/25 01:51:48;;;;;;;22.47;3.30;;;5.30;64.30;;;;;;4932081;28;37877;-76
2024/03/25 01:54:16;;;;;;;26.33;3.30;;;5.30;62.90;;;;;;4961798;28;37261;-76
2024/03/25 01:56:44;;;;;;;24.53;4.37;;;5.30;68.10;;;;;;4951985;28;37859;-76
2024/03/25 01:59:11;;;;;;;20.23;3.00;;;5.20;64.00;;;;;;4948840;28;37569;-76
2024/03/25 02:04:13;;;;;;;26.83;5.43;;;5.20;68.30;;;;;;3753711;23;20078;-77
2024/03/25 02:06:41;;;;;;;23.10;3.47;;;5.10;68.80;;;;;;5006203;28;38046;-77
2024/03/25 02:09:09;;;;;;;21.60;3.07;;;5.00;73.30;;;;;;4982422;28;36009;-77
2024/03/25 02:11:35;;;;;;;17.37;2.80;;;5.00;81.60;;;;;;4990183;28;38549;-76
2024/03/25 02:14:01;;;;;;;21.20;2.70;;;4.90;83.10;;;;;;5005376;28;38349;-76
2024/03/25 02:16:27;;;;;;;23.20;3.17;;;4.80;84.20;;;;;;4987663;28;47024;-76
2024/03/25 02:18:54;;;;;;;16.47;3.00;;;4.70;87.80;;;;;;4991801;28;38380;-76
2024/03/25 02:21:20;;;;;;;14.50;3.10;;;4.70;90.60;;;;;;4989441;28;38735;-76
2024/03/25 02:23:49;;;;;;;24.83;4.17;;;4.60;92.60;;;;;;4983323;28;38474;-76
2024/03/25 02:26:16;;;;;;;21.20;3.77;;;4.50;96.00;;;;;;5001603;28;38043;-76
2024/03/25 02:28:42;;;;;;;25.20;3.37;;;4.40;95.90;;;;;;4983833;28;37740;-78
2024/03/25 02:31:08;;;;;;;18.50;3.13;;;4.30;97.20;;;;;;4982830;28;39913;-75
2024/03/25 02:33:34;;;;;;;29.87;4.27;;;4.30;99.90;;;;;;4996087;28;39861;-77
2024/03/25 02:36:00;;;;;;;20.73;3.13;;;4.20;99.90;;;;;;5002512;28;39883;-77
2024/03/25 02:38:27;;;;;;;18.30;2.63;;;4.10;99.90;;;;;;4981444;28;47490;-77
2024/03/25 02:40:54;;;;;;;15.63;3.43;;;4.00;99.90;;;;;;4984038;28;38925;-77
2024/03/25 02:43:21;;;;;;;16.10;3.37;;;4.00;99.90;;;;;;4983498;28;40022;-76
2024/03/25 02:45:47;;;;;;;23.90;3.07;;;4.00;99.90;;;;;;4986538;28;38424;-76
2024/03/25 02:48:13;;;;;;;15.37;3.37;;;3.90;99.90;;;;;;4987074;28;36797;-76
2024/03/25 02:50:39;;;;;;;16.37;3.60;;;3.90;99.90;;;;;;5005046;28;39192;-77
2024/03/25 02:53:06;;;;;;;15.70;3.07;;;3.80;99.90;;;;;;4986338;28;38906;-76
2024/03/25 02:55:32;;;;;;;16.50;2.80;;;3.70;99.90;;;;;;4980607;28;36991;-77
2024/03/25 02:57:58;;;;;;;19.30;3.33;;;3.70;99.90;;;;;;4983503;28;36005;-76
2024/03/25 03:00:24;;;;;;;19.17;3.57;;;3.60;99.90;;;;;;4981012;28;39199;-77
2024/03/25 03:02:50;;;;;;;19.57;3.37;;;3.60;99.90;;;;;;4985612;28;38940;-77
2024/03/25 03:05:18;;;;;;;24.83;4.73;;;3.60;99.90;;;;;;4982032;28;36387;-76
2024/03/25 03:07:44;;;;;;;31.03;4.17;;;3.50;99.90;;;;;;4982852;28;36822;-78
2024/03/25 03:10:13;;;;;;;17.93;3.03;;;3.50;99.90;;;;;;4982524;28;39673;-77
2024/03/25 03:12:39;;;;;;;29.77;4.27;;;3.50;99.90;;;;;;4985562;28;38277;-77
2024/03/25 03:15:06;;;;;;;22.47;3.77;;;3.50;99.90;;;;;;4985232;28;37895;-76
2024/03/25 03:17:32;;;;;;;19.93;3.70;;;3.40;99.90;;;;;;4988123;28;37496;-77
2024/03/25 03:19:58;;;;;;;13.27;3.00;;;3.40;99.90;;;;;;4989499;28;38791;-77
2024/03/25 03:22:24;;;;;;;21.27;3.63;;;3.40;99.90;;;;;;4986109;28;39667;-76
2024/03/25 03:24:50;;;;;;;24.57;3.47;;;3.40;99.90;;;;;;4982947;28;39520;-76
2024/03/25 03:27:17;;;;;;;25.40;3.97;;;3.30;99.90;;;;;;4974715;28;37627;-77
2024/03/25 03:29:43;;;;;;;24.40;3.27;;;3.30;99.90;;;;;;4979742;28;40600;-77
2024/03/25 03:32:09;;;;;;;26.83;5.37;;;3.20;99.90;;;;;;4977669;28;37322;-78
2024/03/25 03:34:35;;;;;;;19.80;3.40;;;3.30;99.90;;;;;;4978111;28;36182;-77
2024/03/25 03:37:01;;;;;;;13.03;3.00;;;3.20;99.90;;;;;;4978522;28;37733;-77
2024/03/25 03:39:27;;;;;;;22.20;3.63;;;3.20;99.90;;;;;;4976748;28;39584;-77
2024/03/25 03:41:54;;;;;;;21.37;3.80;;;3.20;99.90;;;;;;4979791;28;39338;-78
2024/03/25 03:44:20;;;;;;;19.40;3.50;;;3.20;99.90;;;;;;4980217;28;36365;-78
2024/03/25 03:46:46;;;;;;;25.27;4.27;;;3.20;99.90;;;;;;4980747;28;37755;-77
2024/03/25 03:49:13;;;;;;;23.37;3.70;;;3.10;99.90;;;;;;4984114;28;39507;-78
2024/03/25 03:51:39;;;;;;;25.27;4.03;;;3.10;99.90;;;;;;4983386;28;38609;-78
2024/03/25 03:54:05;;;;;;;20.47;3.90;;;3.10;99.90;;;;;;4989569;28;37549;-77
2024/03/25 03:56:31;;;;;;;23.80;5.80;;;3.20;99.90;;;;;;4985957;28;37391;-76
2024/03/25 03:58:57;;;;;;;31.50;5.20;;;3.10;99.90;;;;;;4987394;28;36609;-76
2024/03/25 04:01:23;;;;;;;29.20;5.30;;;3.20;99.90;;;;;;4987960;28;38531;-77
2024/03/25 04:03:49;;;;;;;27.03;5.07;;;3.20;99.90;;;;;;4994121;28;36397;-76
2024/03/25 04:06:15;;;;;;;27.40;5.23;;;3.30;99.90;;;;;;4992496;28;35975;-77
2024/03/25 04:08:41;;;;;;;27.50;6.10;;;3.40;99.90;;;;;;4998129;28;40672;-77
2024/03/25 04:11:08;;;;;;;19.23;4.67;;;3.50;99.90;;;;;;4983058;28;38463;-77
2024/03/25 04:13:34;;;;;;;33.30;5.27;;;3.40;99.90;;;;;;4993127;28;38025;-77
2024/03/25 04:16:05;;;;;;;26.63;4.63;;;3.40;99.90;;;;;;5012035;28;38594;-77
2024/03/25 04:18:32;;;;;;;22.10;4.60;;;3.50;99.90;;;;;;4994933;28;48695;-77
2024/03/25 04:20:59;;;;;;;18.33;3.87;;;3.40;99.90;;;;;;4995375;28;39235;-77
2024/03/25 04:23:26;;;;;;;31.70;4.00;;;3.40;99.90;;;;;;4996477;28;37078;-77
2024/03/25 04:25:52;;;;;;;18.63;3.70;;;3.40;99.90;;;;;;4986810;28;38034;-76
2024/03/25 04:28:19;;;;;;;27.43;5.10;;;3.30;99.90;;;;;;5004413;28;37949;-77
2024/03/25 04:30:51;;;;;;;22.63;4.80;;;3.30;99.90;;;;;;4987950;28;39189;-77
2024/03/25 04:33:17;;;;;;;19.30;4.05;;;3.20;99.90;;;;;;4985061;28;38510;-76
2024/03/25 04:35:43;;;;;;;26.60;4.87;;;3.20;99.90;;;;;;4986342;28;37856;-76
2024/03/25 04:38:09;;;;;;;24.50;4.37;;;3.10;99.90;;;;;;4986282;28;39814;-77
2024/03/25 04:40:36;;;;;;;28.30;4.60;;;3.10;99.90;;;;;;4986872;28;38406;-77
2024/03/25 04:43:02;;;;;;;28.33;4.70;;;3.10;99.90;;;;;;4985718;28;36116;-77
2024/03/25 04:45:28;;;;;;;22.53;3.93;;;3.10;99.90;;;;;;4990493;28;36078;-77
2024/03/25 04:47:55;;;;;;;24.20;4.00;;;3.00;99.90;;;;;;5001650;28;38316;-76
2024/03/25 04:50:21;;;;;;;31.07;5.90;;;3.00;99.90;;;;;;4992086;28;37637;-76
2024/03/25 04:52:47;;;;;;;24.20;4.40;;;2.90;99.90;;;;;;4990273;28;37750;-77
2024/03/25 04:55:15;;;;;;;22.63;4.17;;;2.90;99.90;;;;;;4983115;28;37922;-77
2024/03/25 04:57:41;;;;;;;22.20;4.50;;;2.80;99.90;;;;;;4985763;28;39757;-77
2024/03/25 05:00:10;;;;;;;19.43;4.77;;;2.80;99.90;;;;;;4983055;28;37086;-76
2024/03/25 05:02:37;;;;;;;21.77;4.57;;;2.70;99.90;;;;;;4985641;28;38787;-76
2024/03/25 05:05:04;;;;;;;24.40;4.43;;;2.70;99.90;;;;;;4987845;28;38304;-76
2024/03/25 05:07:30;;;;;;;20.50;3.73;;;2.70;99.90;;;;;;4985873;28;48499;-76
2024/03/25 05:09:57;;;;;;;19.90;4.20;;;2.70;99.90;;;;;;4991599;28;39199;-77
2024/03/25 05:12:23;;;;;;;18.20;3.93;;;2.60;99.90;;;;;;4986077;28;39032;-76
2024/03/25 05:14:49;;;;;;;17.77;4.07;;;2.60;99.90;;;;;;4985767;28;37752;-77
2024/03/25 05:17:15;;;;;;;20.27;4.10;;;2.60;99.90;;;;;;4990239;28;38586;-77
2024/03/25 05:19:41;;;;;;;27.63;4.53;;;2.50;99.90;;;;;;4984241;28;38572;-78
2024/03/25 05:22:07;;;;;;;19.00;4.53;;;2.50;99.90;;;;;;4978714;28;38333;-77
2024/03/25 05:24:33;;;;;;;22.00;5.10;;;2.50;99.90;;;;;;4986165;28;37810;-77
2024/03/25 05:26:59;;;;;;;21.03;5.90;;;2.40;99.90;;;;;;4978963;28;39403;-77
2024/03/25 05:29:25;;;;;;;23.87;5.10;;;2.40;99.90;;;;;;4993058;28;40185;-76
2024/03/25 05:32:01;;;;;;;24.43;5.37;;;2.40;99.90;;;;;;4979431;28;36750;-77
2024/03/25 05:34:28;;;;;;;19.27;5.97;;;2.40;99.90;;;;;;4983013;28;48798;-78
2024/03/25 05:36:54;;;;;;;23.67;6.10;;;2.40;99.90;;;;;;4984547;28;37748;-75
2024/03/25 05:39:21;;;;;;;22.07;4.50;;;2.40;99.90;;;;;;4978435;28;39831;-76
2024/03/25 05:41:48;;;;;;;19.97;5.17;;;2.30;99.90;;;;;;4978831;28;37603;-77
2024/03/25 05:44:14;;;;;;;25.40;5.50;;;2.30;99.90;;;;;;4982644;28;37112;-76
2024/03/25 05:46:41;;;;;;;18.13;5.33;;;2.30;99.90;;;;;;4989649;28;39544;-77
2024/03/25 05:49:07;;;;;;;19.53;4.67;;;2.30;99.90;;;;;;4987201;28;38499;-77
2024/03/25 05:51:33;;;;;;;21.07;5.03;;;2.30;99.90;;;;;;5004708;28;39549;-77
2024/03/25 05:53:59;;;;;;;25.73;5.50;;;2.30;99.90;;;;;;4997833;28;37678;-76
2024/03/25 05:56:30;;;;;;;24.27;5.10;;;2.30;99.90;;;;;;4979665;28;38702;-76
2024/03/25 05:59:00;;;;;;;24.27;5.37;;;2.30;99.90;;;;;;4996926;28;39316;-77
2024/03/25 06:01:26;;;;;;;21.07;5.17;;;2.40;99.90;;;;;;4994450;28;38817;-77
2024/03/25 06:03:53;;;;;;;21.80;5.40;;;2.30;99.90;;;;;;4983751;28;38951;-76
2024/03/25 06:06:19;;;;;;;19.57;4.87;;;2.40;99.90;;;;;;4993986;28;39212;-76
2024/03/25 06:08:45;;;;;;;17.43;4.60;;;2.40;99.90;;;;;;4998167;28;38501;-76
2024/03/25 06:11:12;;;;;;;24.73;6.53;;;2.40;99.90;;;;;;4983499;28;37649;-77
2024/03/25 06:13:38;;;;;;;23.33;6.10;;;2.40;99.90;;;;;;4993603;28;38034;-76
2024/03/25 06:16:04;;;;;;;20.57;5.13;;;2.40;99.90;;;;;;4978636;28;40249;-77
2024/03/25 06:18:30;;;;;;;25.23;7.10;;;2.50;99.90;;;;;;4978350;28;39527;-77
2024/03/25 06:20:56;;;;;;;20.80;6.13;;;2.50;99.90;;;;;;4976119;28;39119;-76
2024/03/25 06:23:24;;;;;;;33.93;7.80;;;2.50;99.90;;;;;;4977704;28;37151;-76
2024/03/25 06:25:51;;;;;;;26.07;7.30;;;2.50;99.90;;;;;;4976384;28;39849;-76
2024/03/25 06:28:17;;;;;;;33.03;8.40;;;2.60;99.90;;;;;;4977933;28;38818;-77
2024/03/25 06:36:13;;;;;;;22.67;9.40;;;2.80;99.90;;;;;;4996559;28;39365;-76
2024/03/25 06:38:39;;;;;;;32.30;12.67;;;2.90;99.90;;;;;;4973148;28;39615;-76
2024/03/25 06:41:05;;;;;;;40.97;14.93;;;3.00;99.90;;;;;;4971956;28;37229;-76
2024/03/25 06:43:31;;;;;;;39.60;16.93;;;3.10;99.90;;;;;;4974565;28;37735;-76
2024/03/25 06:45:58;;;;;;;42.03;17.97;;;3.20;99.90;;;;;;4991485;28;38244;-76
2024/03/25 06:48:24;;;;;;;54.73;21.37;;;3.50;99.90;;;;;;4989411;28;39276;-76
2024/03/25 06:50:57;;;;;;;36.37;17.13;;;3.70;99.90;;;;;;4997125;28;40064;-77
2024/03/25 06:53:23;;;;;;;70.70;26.03;;;3.90;99.90;;;;;;4983123;28;37176;-76
2024/03/25 06:55:59;;;;;;;67.57;29.43;;;4.20;99.90;;;;;;5002446;28;38166;-76
2024/03/25 06:58:27;;;;;;;64.80;30.77;;;4.40;99.90;;;;;;4986776;28;38362;-76
2024/03/25 07:00:55;;;;;;;83.07;37.53;;;4.60;99.90;;;;;;4987519;28;38138;-76
2024/03/25 07:03:22;;;;;;;72.93;35.43;;;4.70;99.90;;;;;;4985265;28;37577;-76
2024/03/25 07:05:52;;;;;;;67.23;34.23;;;4.90;99.90;;;;;;4985821;28;40203;-75
2024/03/25 07:08:19;;;;;;;71.57;35.73;;;5.00;99.90;;;;;;4985118;28;38140;-75
2024/03/25 07:10:46;;;;;;;67.93;35.40;;;5.10;99.90;;;;;;4978179;28;38649;-75
2024/03/25 07:13:12;;;;;;;65.77;33.60;;;5.10;99.90;;;;;;4964716;28;36883;-76
2024/03/25 07:15:38;;;;;;;64.20;33.70;;;5.20;99.90;;;;;;4986515;28;37932;-75
2024/03/25 07:18:05;;;;;;;64.90;33.83;;;5.30;99.90;;;;;;4965938;28;38163;-75
2024/03/25 07:20:32;;;;;;;65.00;34.20;;;5.40;99.90;;;;;;4965605;28;36305;-75
2024/03/25 07:22:58;;;;;;;64.43;34.00;;;5.40;99.90;;;;;;4968595;28;37438;-75
2024/03/25 07:25:25;;;;;;;57.47;31.07;;;5.50;99.90;;;;;;4966186;28;39578;-76
2024/03/25 07:27:55;;;;;;;56.27;30.17;;;5.60;99.90;;;;;;4985639;28;38173;-75
2024/03/25 07:30:27;;;;;;;59.97;30.97;;;5.60;99.90;;;;;;4980142;28;39047;-75
2024/03/25 07:32:57;;;;;;;;;;;5.60;99.90;;;;;;4982146;28;36225;-75
2024/03/25 07:35:23;;;;;;;52.33;29.73;;;5.70;99.90;;;;;;4966900;28;38556;-75
2024/03/25 07:37:51;;;;;;;51.30;30.07;;;5.80;99.90;;;;;;4970710;28;38157;-75
2024/03/25 07:40:18;;;;;;;46.73;28.70;;;5.90;99.90;;;;;;4965811;28;37780;-75
2024/03/25 07:42:44;;;;;;;48.37;28.00;;;6.00;99.90;;;;;;4967848;28;37896;-76
2024/03/25 07:45:14;;;;;;;56.80;28.43;;;6.00;99.90;;;;;;4963305;28;39041;-75
2024/03/25 07:47:40;;;;;;;44.07;25.20;;;6.10;99.90;;;;;;4981858;28;38348;-75
2024/03/25 07:50:08;;;;;;;44.83;27.43;;;6.20;99.90;;;;;;4981061;28;36686;-75
2024/03/25 07:52:39;;;;;;;55.67;26.10;;;6.30;99.90;;;;;;4970925;28;37810;-76
2024/03/25 07:55:08;;;;;;;54.83;24.17;;;6.40;99.90;;;;;;4964386;28;39724;-76
2024/03/25 07:57:36;;;;;;;54.40;25.47;;;6.40;99.90;;;;;;4976985;28;36334;-75
2024/03/25 08:00:05;;;;;;;41.67;24.50;;;6.50;99.90;;;;;;4978667;28;38178;-76
2024/03/25 08:02:31;;;;;;;47.53;25.13;;;6.60;99.90;;;;;;4979911;28;37152;-75
2024/03/25 08:04:57;;;;;;;45.10;25.60;;;6.70;99.90;;;;;;4964337;28;39572;-76
2024/03/25 08:07:23;;;;;;;50.03;24.33;;;6.70;99.90;;;;;;4964931;28;38337;-75
2024/03/25 08:09:50;;;;;;;55.97;27.30;;;6.80;99.90;;;;;;4962192;28;40962;-74
2024/03/25 08:12:16;;;;;;;50.87;26.53;;;6.80;99.90;;;;;;4966172;28;36892;-75
2024/03/25 08:14:43;;;;;;;51.07;28.77;;;6.90;99.90;;;;;;4958601;28;38140;-75
2024/03/25 08:17:09;;;;;;;45.30;27.60;;;7.00;99.90;;;;;;4960213;28;37254;-74
2024/03/25 08:19:35;;;;;;;49.30;27.13;;;7.20;99.90;;;;;;4966626;28;39111;-75
2024/03/25 08:22:01;;;;;;;57.83;29.07;;;6.90;99.90;;;;;;4965345;28;36935;-75
2024/03/25 08:24:28;;;;;;;51.37;27.53;;;7.00;99.90;;;;;;4982387;28;37960;-74
2024/03/25 08:26:54;;;;;;;44.20;23.40;;;7.00;99.90;;;;;;4969026;28;37732;-75
2024/03/25 08:29:20;;;;;;;44.77;23.33;;;6.80;99.90;;;;;;4965437;28;36981;-75
2024/03/25 08:31:47;;;;;;;31.50;18.60;;;6.90;99.90;;;;;;4966286;28;37127;-75
2024/03/25 08:34:13;;;;;;;36.33;18.30;;;6.80;99.90;;;;;;4967547;28;39527;-75
2024/03/25 08:36:39;;;;;;;32.17;18.00;;;6.50;99.90;;;;;;4981261;28;37282;-75
2024/03/25 08:39:06;;;;;;;36.43;19.23;;;6.40;99.90;;;;;;4966034;28;37819;-76
2024/03/25 08:41:32;;;;;;;32.27;18.63;;;6.50;99.90;;;;;;4967428;28;36364;-75
2024/03/25 08:43:59;;;;;;;36.47;18.97;;;6.40;99.90;;;;;;4966086;28;37422;-76
2024/03/25 08:46:25;;;;;;;37.00;20.10;;;6.50;99.90;;;;;;4964352;28;38935;-76
2024/03/25 08:48:51;;;;;;;45.27;19.93;;;6.60;99.90;;;;;;4974596;28;37022;-75
2024/03/25 08:51:17;;;;;;;41.47;19.83;;;6.80;99.90;;;;;;4964814;28;36772;-74
2024/03/25 08:53:43;;;;;;;39.17;20.30;;;6.90;99.90;;;;;;4987128;28;37679;-75
2024/03/25 08:56:09;;;;;;;35.83;18.57;;;7.00;99.90;;;;;;4967584;28;38537;-75
2024/03/25 08:58:35;;;;;;;41.33;19.63;;;6.90;99.90;;;;;;4986131;28;36977;-75
2024/03/25 09:01:02;;;;;;;36.33;17.90;;;6.90;99.90;;;;;;4982737;28;37214;-75
2024/03/25 09:03:29;;;;;;;42.73;18.90;;;6.90;99.90;;;;;;4969551;28;38571;-75
2024/03/25 09:05:56;;;;;;;46.83;21.97;;;7.00;99.90;;;;;;4966038;28;41395;-74
2024/03/25 09:08:22;;;;;;;40.00;19.13;;;6.90;99.90;;;;;;4964411;28;39637;-74
2024/03/25 09:11:03;;;;;;;37.73;19.93;;;7.00;99.90;;;;;;4969936;28;37444;-75
2024/03/25 09:13:30;;;;;;;45.40;20.07;;;7.20;99.90;;;;;;4981823;28;46702;-75
2024/03/25 09:15:56;;;;;;;38.90;18.97;;;7.20;99.90;;;;;;4983689;28;38413;-74
2024/03/25 09:18:23;;;;;;;34.90;18.50;;;7.20;99.90;;;;;;4970218;28;37809;-75
2024/03/25 09:20:49;;;;;;;38.47;18.00;;;7.40;99.90;;;;;;4986272;28;37908;-75
2024/03/25 09:23:15;;;;;;;35.30;17.73;;;7.50;99.90;;;;;;4972492;28;40361;-75
2024/03/25 09:25:51;;;;;;;34.00;18.00;;;7.70;99.90;;;;;;4971538;28;38520;-74
2024/03/25 09:28:17;;;;;;;38.13;16.87;;;7.70;99.90;;;;;;4988488;28;40463;-75
2024/03/25 09:30:44;;;;;;;36.80;17.97;;;7.90;99.90;;;;;;4987909;28;37368;-75
2024/03/25 09:33:13;;;;;;;33.77;17.03;;;8.00;99.90;;;;;;4986059;28;39353;-75
2024/03/25 09:35:42;;;;;;;33.93;17.67;;;8.20;99.90;;;;;;4972748;28;39292;-75
2024/03/25 09:38:09;;;;;;;36.23;18.67;;;8.30;90.50;;;;;;4971268;28;40264;-75
2024/03/25 09:40:40;;;;;;;44.93;18.60;;;8.50;71.40;;;;;;4971808;28;37373;-76
2024/03/25 09:43:17;;;;;;;33.15;17.77;;;8.40;60.00;;;;;;4985833;28;39224;-76
2024/03/25 09:45:48;;;;;;;37.67;17.63;;;8.60;57.40;;;;;;4969767;28;37661;-77
2024/03/25 09:48:16;;;;;;;34.83;16.83;;;8.80;55.00;;;;;;4968701;28;38291;-76
2024/03/25 09:50:44;;;;;;;34.10;18.00;;;9.10;23.80;;;;;;4972175;28;37188;-76
2024/03/25 09:53:11;;;;;;;42.93;18.47;;;8.60;17.40;;;;;;4969837;28;39289;-75
2024/03/25 09:55:37;;;;;;;32.00;17.70;;;8.50;40.30;;;;;;4969350;28;38552;-75
2024/03/25 09:58:04;;;;;;;30.50;17.70;;;8.70;34.90;;;;;;4985576;28;38428;-76
2024/03/25 10:00:30;;;;;;;35.13;17.73;;;8.90;31.20;;;;;;4983970;28;38677;-75
2024/03/25 10:02:56;;;;;;;36.90;17.90;;;9.10;19.50;;;;;;4986558;28;40318;-76
2024/03/25 10:05:23;;;;;;;33.33;17.03;;;9.40;4.70;;;;;;4970022;28;38114;-75
2024/03/25 10:07:49;;;;;;;40.57;19.50;;;9.20;1.00;;;;;;4985870;28;38287;-76
2024/03/25 10:10:20;;;;;;;32.03;18.33;;;9.30;1.00;;;;;;4969196;28;37156;-75
2024/03/25 10:12:46;;;;;;;36.67;17.77;;;9.50;1.00;;;;;;4970064;28;38412;-76
2024/03/25 10:15:16;;;;;;;33.70;17.87;;;9.80;1.00;;;;;;4970513;28;38558;-76
2024/03/25 10:17:45;;;;;;;35.30;19.60;;;9.90;1.00;;;;;;4987435;28;37896;-76
2024/03/25 10:20:15;;;;;;;30.20;17.67;;;10.20;1.00;;;;;;4971558;28;37472;-75
2024/03/25 10:22:46;;;;;;;29.27;16.80;;;10.40;1.00;;;;;;4969188;28;38730;-76
2024/03/25 10:25:31;;;;;;;32.22;16.17;;;10.70;1.00;;;;;;4970731;28;37396;-76
2024/03/25 10:27:59;;;;;;;33.33;17.02;;;10.60;1.00;;;;;;4986883;28;38665;-76
2024/03/25 10:30:28;;;;;;;30.88;17.25;;;10.40;1.00;;;;;;4971095;28;39094;-75
2024/03/25 10:32:58;;;;;;;29.83;17.63;;;10.40;1.00;;;;;;4973195;28;38666;-75
2024/03/25 10:35:29;;;;;;;30.13;17.17;;;10.70;1.00;;;;;;4971785;28;38316;-76
2024/03/25 10:38:00;;;;;;;31.52;19.02;;;10.80;1.00;;;;;;4983705;28;39620;-76
2024/03/25 10:40:31;;;;;;;36.10;20.33;;;11.10;1.00;;;;;;4988836;28;37479;-76
2024/03/25 10:43:17;;;;;;;30.15;18.23;;;10.90;1.00;;;;;;4987991;28;39373;-76
2024/03/25 10:45:46;;;;;;;35.38;18.77;;;10.60;1.00;;;;;;4990927;28;47996;-76
2024/03/25 10:48:39;;;;;;;40.13;20.85;;;10.60;1.00;;;;;;4990089;28;37729;-77
2024/03/25 10:51:10;;;;;;;32.83;19.40;;;10.80;1.00;;;;;;4976563;28;37425;-76
2024/03/25 10:53:37;;;;;;;35.50;20.45;;;11.10;1.00;;;;;;4986092;28;39494;-77
2024/03/25 10:56:05;;;;;;;35.70;21.23;;;11.60;1.00;;;;;;4974077;28;38402;-76
2024/03/25 10:58:32;;;;;;;41.05;21.48;;;11.60;1.00;;;;;;4979013;28;37366;-76
2024/03/25 11:01:00;;;;;;;39.58;20.98;;;11.50;1.00;;;;;;4980751;28;36971;-76
2024/03/25 11:03:27;;;;;;;38.97;22.38;;;11.20;1.00;;;;;;4979883;28;48345;-76
2024/03/25 11:05:53;;;;;;;40.22;19.58;;;11.40;1.00;;;;;;4976308;28;37756;-76
2024/03/25 11:08:20;;;;;;;36.58;19.88;;;11.60;1.00;;;;;;4999196;28;36691;-76
2024/03/25 11:10:47;;;;;;;32.90;20.35;;;11.80;1.00;;;;;;4995097;28;36107;-76
2024/03/25 11:13:20;;;;;;;31.80;17.58;;;11.90;1.00;;;;;;4976701;28;37538;-77
2024/03/25 11:15:48;;;;;;;;;;;12.10;1.00;;;;;;4996462;28;38554;-76
2024/03/25 11:18:16;;;;;;;35.42;18.75;;;11.90;99.90;;;;;;4992193;28;36515;-76
2024/03/25 11:20:44;;;;;;;33.60;18.88;;;12.00;1.00;;;;;;4989656;28;37484;-76
2024/03/25 11:23:13;;;;;;;37.05;17.60;;;12.00;99.90;;;;;;4973478;28;37661;-78
2024/03/25 11:25:41;;;;;;;38.35;17.98;;;12.00;99.90;;;;;;4988459;28;38616;-75
2024/03/25 11:28:11;;;;;;;27.70;15.07;;;12.00;99.90;;;;;;4968689;28;39023;-77
2024/03/25 11:30:41;;;;;;;33.40;16.10;;;12.20;99.90;;;;;;4989412;28;38556;-76
2024/03/25 11:33:07;;;;;;;29.85;15.23;;;12.10;1.00;;;;;;4988941;28;40811;-76
2024/03/25 11:35:37;;;;;;;28.52;13.70;;;12.20;1.00;;;;;;4990863;28;39940;-76
2024/03/25 11:38:04;;;;;;;27.35;14.63;;;12.50;99.90;;;;;;4976181;28;37317;-76
2024/03/25 11:40:30;;;;;;;25.60;12.13;;;12.50;1.00;;;;;;4988671;28;39082;-76
2024/03/25 11:42:58;;;;;;;17.27;10.40;;;12.70;1.00;;;;;;4967182;28;40554;-77
2024/03/25 11:45:25;;;;;;;19.42;10.27;;;12.80;99.90;;;;;;4973186;28;38827;-77
2024/03/25 11:47:51;;;;;;;23.00;10.75;;;12.30;99.90;;;;;;4970430;28;38944;-76
2024/03/25 11:50:18;;;;;;;21.00;12.13;;;12.20;1.00;;;;;;4977364;28;37111;-76
2024/03/25 11:52:46;;;;;;;23.02;11.40;;;12.60;1.00;;;;;;4990006;28;39630;-77
2024/03/25 11:55:17;;;;;;;17.98;9.85;;;12.70;1.00;;;;;;4974989;28;37781;-77
2024/03/25 11:57:43;;;;;;;17.67;9.10;;;13.00;1.00;;;;;;4972957;28;37401;-77
2024/03/25 12:00:13;;;;;;;12.63;6.97;;;13.00;93.90;;;;;;4991137;28;37093;-77
2024/03/25 12:02:43;;;;;;;13.63;7.45;;;12.70;99.90;;;;;;4990723;28;39450;-77
2024/03/25 12:05:11;;;;;;;15.88;7.90;;;13.10;99.90;;;;;;4974326;28;38085;-76
2024/03/25 12:07:37;;;;;;;11.65;6.90;;;13.20;1.00;;;;;;4974554;28;37301;-75
2024/03/25 12:12:50;;;;;;;10.85;6.13;;;13.20;1.00;;;;;;4973333;28;48702;-76
2024/03/25 12:15:17;;;;;;;15.20;5.93;;;13.20;1.00;;;;;;4989972;28;39079;-75
2024/03/25 12:17:43;;;;;;;13.75;5.82;;;13.30;1.00;;;;;;4986711;28;36916;-75
2024/03/25 12:20:12;;;;;;;15.77;6.20;;;13.40;1.00;;;;;;4974049;28;37840;-75
2024/03/25 12:22:40;;;;;;;11.95;5.60;;;13.90;1.00;;;;;;4988291;28;38840;-75
2024/03/25 12:25:08;;;;;;;10.85;4.93;;;13.90;99.90;;;;;;4989931;28;39134;-75
2024/03/25 12:27:36;;;;;;;11.68;5.45;;;13.50;1.00;;;;;;4977217;28;37935;-76
2024/03/25 12:30:08;;;;;;;11.82;5.03;;;13.50;99.90;;;;;;4990315;28;38643;-75
2024/03/25 12:32:38;;;;;;;8.43;4.73;;;13.90;99.90;;;;;;4976501;28;47843;-75
2024/03/25 12:35:18;;;;;;;8.18;3.75;;;13.90;1.00;;;;;;4988169;28;39679;-74
2024/03/25 12:37:45;;;;;;;9.98;4.57;;;14.00;77.60;;;;;;4969759;28;36744;-76
2024/03/25 12:40:33;;;;;;;10.45;4.80;;;14.30;1.00;;;;;;4971093;28;37618;-76
2024/03/25 12:42:59;;;;;;;10.52;4.43;;;14.30;1.00;;;;;;4985540;28;39765;-75
2024/03/25 12:45:25;;;;;;;10.32;4.70;;;13.70;1.00;;;;;;4986920;28;38273;-75
2024/03/25 12:47:52;;;;;;;11.30;4.43;;;13.50;1.00;;;;;;4985488;28;36499;-75
2024/03/25 12:50:18;;;;;;;7.13;4.35;;;13.60;1.00;;;;;;4990710;28;37460;-75
2024/03/25 12:52:45;;;;;;;8.98;3.90;;;13.80;1.00;;;;;;4986630;28;40337;-75
2024/03/25 12:55:11;;;;;;;10.68;4.07;;;13.60;1.00;;;;;;4987512;28;37130;-76